Bulgan Airport


Codes: ZMBN/UGA
Name: Bulgan Airport
City: Bulgan
Country: Mongolia
Elevation: 4311 ft.
Wikipedia:

Photos at Bulgan Airport


   Photos courtesy of SpottingLog. You can add your own sightings and photos by signing up for a free trial today.



No photos found.

Weather at Bulgan Airport


Time (UTC)DescriptionTempratureWindCloud coverageVisibilityPressureHumidity
19-Apr-2024 06:00Broken Clouds10°C18 mph, NW80%10000m1009hPa33%
19-Apr-2024 09:00Broken Clouds12°C11 mph, NW65%10000m1006hPa25%
19-Apr-2024 12:00Broken Clouds10°C4 mph, W63%10000m1004hPa30%
19-Apr-2024 15:00Broken Clouds8°C2 mph, SW81%10000m1004hPa38%
19-Apr-2024 18:00Broken Clouds6°C2 mph, S77%10000m1003hPa47%
19-Apr-2024 21:00Scattered Clouds5°C4 mph, W27%10000m1003hPa51%
20-Apr-2024 00:00Scattered Clouds8°C9 mph, NW42%10000m1002hPa58%
20-Apr-2024 03:00Overcast Clouds10°C18 mph, NW88%10000m1003hPa32%
20-Apr-2024 06:00Broken Clouds13°C16 mph, NW82%10000m1001hPa23%
20-Apr-2024 09:00Overcast Clouds11°C18 mph, NW89%10000m1001hPa25%
20-Apr-2024 12:00Overcast Clouds8°C11 mph, N95%10000m1004hPa42%
20-Apr-2024 15:00Light Snow4°C7 mph, N100%10000m1008hPa61%
20-Apr-2024 18:00Light Snow1°C7 mph, N100%0m1011hPa91%
20-Apr-2024 21:00Snow1°C2 mph, N100%9586m1013hPa91%
21-Apr-2024 00:00Light Snow1°C7 mph, N100%10000m1015hPa78%
21-Apr-2024 03:00Light Rain3°C2 mph, N100%10000m1014hPa56%
21-Apr-2024 06:00Snow2°C2 mph, S100%8m1014hPa88%
21-Apr-2024 09:00Snow2°C4 mph, E100%10000m1013hPa81%
21-Apr-2024 12:00Light Snow0°C9 mph, N100%0m1015hPa94%
21-Apr-2024 15:00Snow-2°C11 mph, NE100%260m1019hPa99%
21-Apr-2024 18:00Light Snow-4°C13 mph, N100%9419m1023hPa83%
21-Apr-2024 21:00Overcast Clouds-4°C4 mph, NW100%10000m1024hPa85%
22-Apr-2024 00:00Broken Clouds-4°C4 mph, NW83%10000m1025hPa88%
22-Apr-2024 03:00Clear Sky-1°C7 mph, NW3%10000m1022hPa64%
22-Apr-2024 06:00Clear Sky2°C11 mph, W4%10000m1018hPa68%
22-Apr-2024 09:00Scattered Clouds3°C4 mph, SW45%10000m1014hPa73%
22-Apr-2024 12:00Broken Clouds-1°C2 mph, SW56%10000m1014hPa85%
22-Apr-2024 15:00Broken Clouds-1°C4 mph, W82%10000m1011hPa74%
22-Apr-2024 18:00Overcast Clouds-0°C4 mph, SW91%10000m1008hPa74%
22-Apr-2024 21:00Broken Clouds-1°C7 mph, W78%10000m1007hPa80%
23-Apr-2024 00:00Broken Clouds3°C7 mph, W75%10000m1005hPa80%
23-Apr-2024 03:00Overcast Clouds4°C20 mph, NW100%10000m1006hPa61%
23-Apr-2024 06:00Light Rain6°C7 mph, N74%10000m1004hPa59%
23-Apr-2024 09:00Light Rain5°C4 mph, NE87%10000m1005hPa66%
23-Apr-2024 12:00Light Snow2°C4 mph, S68%10000m1006hPa80%
23-Apr-2024 15:00Scattered Clouds1°C4 mph, NW31%10000m1008hPa85%
23-Apr-2024 18:00Scattered Clouds-0°C2 mph, S37%10000m1007hPa83%
23-Apr-2024 21:00Overcast Clouds0°C4 mph, SW100%3397m1005hPa91%
24-Apr-2024 00:00Light Snow1°C2 mph, SW100%10000m1003hPa92%
24-Apr-2024 03:00Light Snow3°C13 mph, NW100%2575m1002hPa89%